sensor_id;sensor_type;location;lat;lon;timestamp;P1;durP1;ratioP1;P2;durP2;ratioP2
71566;SDS011;59403;47.456;19.120;2023-02-03T00:00:04;4.80;;;1.90;;
71566;SDS011;59403;47.456;19.120;2023-02-03T00:02:31;8.48;;;2.37;;
71566;SDS011;59403;47.456;19.120;2023-02-03T00:04:58;5.20;;;2.10;;
71566;SDS011;59403;47.456;19.120;2023-02-03T00:07:26;4.57;;;1.70;;
71566;SDS011;59403;47.456;19.120;2023-02-03T00:09:54;5.50;;;2.00;;
71566;SDS011;59403;47.456;19.120;2023-02-03T00:12:21;6.10;;;2.00;;
71566;SDS011;59403;47.456;19.120;2023-02-03T00:14:48;4.20;;;1.85;;
71566;SDS011;59403;47.456;19.120;2023-02-03T00:17:15;4.95;;;1.87;;
71566;SDS011;59403;47.456;19.120;2023-02-03T00:19:41;4.32;;;1.90;;
71566;SDS011;59403;47.456;19.120;2023-02-03T00:22:08;7.62;;;1.85;;
71566;SDS011;59403;47.456;19.120;2023-02-03T00:24:36;5.60;;;2.30;;
71566;SDS011;59403;47.456;19.120;2023-02-03T00:27:03;5.25;;;1.95;;
71566;SDS011;59403;47.456;19.120;2023-02-03T00:29:33;5.30;;;2.03;;
71566;SDS011;59403;47.456;19.120;2023-02-03T00:32:00;3.78;;;1.67;;
71566;SDS011;59403;47.456;19.120;2023-02-03T00:34:27;3.58;;;1.80;;
71566;SDS011;59403;47.456;19.120;2023-02-03T00:36:55;6.03;;;1.50;;
71566;SDS011;59403;47.456;19.120;2023-02-03T00:39:22;3.05;;;1.55;;
71566;SDS011;59403;47.456;19.120;2023-02-03T00:41:50;3.53;;;1.50;;
71566;SDS011;59403;47.456;19.120;2023-02-03T00:44:17;4.45;;;1.45;;
71566;SDS011;59403;47.456;19.120;2023-02-03T00:46:44;4.47;;;1.52;;
71566;SDS011;59403;47.456;19.120;2023-02-03T00:49:11;4.17;;;1.87;;
71566;SDS011;59403;47.456;19.120;2023-02-03T00:51:38;4.25;;;1.90;;
71566;SDS011;59403;47.456;19.120;2023-02-03T00:54:05;2.75;;;1.37;;
71566;SDS011;59403;47.456;19.120;2023-02-03T00:56:32;5.68;;;1.40;;
71566;SDS011;59403;47.456;19.120;2023-02-03T00:59:00;2.80;;;1.67;;
71566;SDS011;59403;47.456;19.120;2023-02-03T01:01:27;2.70;;;1.10;;
71566;SDS011;59403;47.456;19.120;2023-02-03T01:03:54;4.55;;;1.55;;
71566;SDS011;59403;47.456;19.120;2023-02-03T01:06:22;3.97;;;1.35;;
71566;SDS011;59403;47.456;19.120;2023-02-03T01:08:49;4.37;;;1.40;;
71566;SDS011;59403;47.456;19.120;2023-02-03T01:11:18;4.65;;;1.35;;
71566;SDS011;59403;47.456;19.120;2023-02-03T01:13:46;4.43;;;1.60;;
71566;SDS011;59403;47.456;19.120;2023-02-03T01:16:16;3.78;;;1.10;;
71566;SDS011;59403;47.456;19.120;2023-02-03T01:18:45;3.75;;;1.30;;
71566;SDS011;59403;47.456;19.120;2023-02-03T01:21:14;5.87;;;1.30;;
71566;SDS011;59403;47.456;19.120;2023-02-03T01:23:42;3.22;;;1.45;;
71566;SDS011;59403;47.456;19.120;2023-02-03T01:26:10;4.40;;;1.33;;
71566;SDS011;59403;47.456;19.120;2023-02-03T01:28:38;4.55;;;1.55;;
71566;SDS011;59403;47.456;19.120;2023-02-03T01:31:10;4.68;;;1.70;;
71566;SDS011;59403;47.456;19.120;2023-02-03T01:33:39;5.00;;;1.40;;
71566;SDS011;59403;47.456;19.120;2023-02-03T01:36:10;4.47;;;1.73;;
71566;SDS011;59403;47.456;19.120;2023-02-03T01:38:37;5.20;;;1.47;;
71566;SDS011;59403;47.456;19.120;2023-02-03T01:41:05;4.40;;;1.30;;
71566;SDS011;59403;47.456;19.120;2023-02-03T01:43:36;4.45;;;1.60;;
71566;SDS011;59403;47.456;19.120;2023-02-03T01:46:06;2.80;;;1.17;;
71566;SDS011;59403;47.456;19.120;2023-02-03T01:49:03;3.12;;;1.92;;
71566;SDS011;59403;47.456;19.120;2023-02-03T01:51:32;3.80;;;1.70;;
71566;SDS011;59403;47.456;19.120;2023-02-03T01:54:00;4.90;;;1.50;;
71566;SDS011;59403;47.456;19.120;2023-02-03T01:56:29;2.60;;;1.60;;
71566;SDS011;59403;47.456;19.120;2023-02-03T01:59:00;4.90;;;1.50;;
71566;SDS011;59403;47.456;19.120;2023-02-03T02:01:28;4.53;;;1.60;;
71566;SDS011;59403;47.456;19.120;2023-02-03T02:03:56;4.60;;;1.53;;
71566;SDS011;59403;47.456;19.120;2023-02-03T02:06:28;4.35;;;1.75;;
71566;SDS011;59403;47.456;19.120;2023-02-03T02:08:55;3.25;;;1.33;;
71566;SDS011;59403;47.456;19.120;2023-02-03T02:11:25;4.28;;;1.40;;
71566;SDS011;59403;47.456;19.120;2023-02-03T02:13:52;6.28;;;1.60;;
71566;SDS011;59403;47.456;19.120;2023-02-03T02:16:23;4.27;;;1.57;;
71566;SDS011;59403;47.456;19.120;2023-02-03T02:19:03;3.62;;;1.20;;
71566;SDS011;59403;47.456;19.120;2023-02-03T02:21:58;4.05;;;1.60;;
71566;SDS011;59403;47.456;19.120;2023-02-03T02:27:46;5.82;;;1.62;;
71566;SDS011;59403;47.456;19.120;2023-02-03T02:33:44;5.25;;;1.52;;
71566;SDS011;59403;47.456;19.120;2023-02-03T02:36:23;3.95;;;1.48;;
71566;SDS011;59403;47.456;19.120;2023-02-03T02:38:58;2.72;;;1.30;;
71566;SDS011;59403;47.456;19.120;2023-02-03T02:41:36;2.47;;;1.10;;
71566;SDS011;59403;47.456;19.120;2023-02-03T02:44:10;3.47;;;1.10;;
71566;SDS011;59403;47.456;19.120;2023-02-03T02:46:43;3.33;;;1.50;;
71566;SDS011;59403;47.456;19.120;2023-02-03T02:49:15;3.20;;;1.62;;
71566;SDS011;59403;47.456;19.120;2023-02-03T02:51:47;4.47;;;1.55;;
71566;SDS011;59403;47.456;19.120;2023-02-03T02:54:16;4.12;;;1.40;;
71566;SDS011;59403;47.456;19.120;2023-02-03T02:56:48;3.67;;;1.40;;
71566;SDS011;59403;47.456;19.120;2023-02-03T02:59:18;3.42;;;1.00;;
71566;SDS011;59403;47.456;19.120;2023-02-03T03:01:45;2.08;;;0.70;;
71566;SDS011;59403;47.456;19.120;2023-02-03T03:04:12;3.03;;;0.82;;
71566;SDS011;59403;47.456;19.120;2023-02-03T03:06:45;2.53;;;1.33;;
71566;SDS011;59403;47.456;19.120;2023-02-03T03:09:15;2.37;;;1.13;;
71566;SDS011;59403;47.456;19.120;2023-02-03T03:11:48;2.50;;;1.00;;
71566;SDS011;59403;47.456;19.120;2023-02-03T03:14:17;3.80;;;1.12;;
71566;SDS011;59403;47.456;19.120;2023-02-03T03:16:47;4.40;;;1.00;;
71566;SDS011;59403;47.456;19.120;2023-02-03T03:19:21;4.82;;;1.33;;
71566;SDS011;59403;47.456;19.120;2023-02-03T03:21:51;3.87;;;1.47;;
71566;SDS011;59403;47.456;19.120;2023-02-03T03:24:28;2.85;;;1.17;;
71566;SDS011;59403;47.456;19.120;2023-02-03T03:26:58;3.67;;;1.27;;
71566;SDS011;59403;47.456;19.120;2023-02-03T03:29:31;3.35;;;1.52;;
71566;SDS011;59403;47.456;19.120;2023-02-03T03:32:03;3.42;;;1.40;;
71566;SDS011;59403;47.456;19.120;2023-02-03T03:34:32;6.30;;;1.40;;
71566;SDS011;59403;47.456;19.120;2023-02-03T03:37:00;2.75;;;1.25;;
71566;SDS011;59403;47.456;19.120;2023-02-03T03:39:34;4.60;;;1.40;;
71566;SDS011;59403;47.456;19.120;2023-02-03T03:42:08;3.40;;;1.37;;
71566;SDS011;59403;47.456;19.120;2023-02-03T03:44:43;4.85;;;1.27;;
71566;SDS011;59403;47.456;19.120;2023-02-03T03:47:18;2.47;;;1.10;;
71566;SDS011;59403;47.456;19.120;2023-02-03T03:49:51;3.62;;;1.10;;
71566;SDS011;59403;47.456;19.120;2023-02-03T03:52:22;3.22;;;1.20;;
71566;SDS011;59403;47.456;19.120;2023-02-03T03:54:53;3.70;;;1.17;;
71566;SDS011;59403;47.456;19.120;2023-02-03T03:57:22;3.45;;;1.20;;
71566;SDS011;59403;47.456;19.120;2023-02-03T03:59:52;3.70;;;1.13;;
71566;SDS011;59403;47.456;19.120;2023-02-03T04:02:20;5.97;;;1.20;;
71566;SDS011;59403;47.456;19.120;2023-02-03T04:04:49;3.83;;;1.40;;
71566;SDS011;59403;47.456;19.120;2023-02-03T04:07:18;4.22;;;1.10;;
71566;SDS011;59403;47.456;19.120;2023-02-03T04:09:45;2.83;;;1.40;;
71566;SDS011;59403;47.456;19.120;2023-02-03T04:12:13;4.40;;;1.27;;
71566;SDS011;59403;47.456;19.120;2023-02-03T04:14:47;3.72;;;1.27;;
71566;SDS011;59403;47.456;19.120;2023-02-03T04:17:14;5.18;;;1.30;;
71566;SDS011;59403;47.456;19.120;2023-02-03T04:19:44;5.07;;;1.23;;
71566;SDS011;59403;47.456;19.120;2023-02-03T04:22:11;4.55;;;1.25;;
71566;SDS011;59403;47.456;19.120;2023-02-03T04:24:39;2.73;;;1.20;;
71566;SDS011;59403;47.456;19.120;2023-02-03T04:27:06;5.03;;;1.48;;
71566;SDS011;59403;47.456;19.120;2023-02-03T04:29:33;4.43;;;1.60;;
71566;SDS011;59403;47.456;19.120;2023-02-03T04:32:00;3.22;;;1.40;;
71566;SDS011;59403;47.456;19.120;2023-02-03T04:34:27;2.78;;;1.20;;
71566;SDS011;59403;47.456;19.120;2023-02-03T04:36:53;5.90;;;1.30;;
71566;SDS011;59403;47.456;19.120;2023-02-03T04:39:20;4.28;;;1.27;;
71566;SDS011;59403;47.456;19.120;2023-02-03T04:41:49;3.90;;;1.62;;
71566;SDS011;59403;47.456;19.120;2023-02-03T04:44:15;5.95;;;2.53;;
71566;SDS011;59403;47.456;19.120;2023-02-03T04:46:42;5.05;;;1.92;;
71566;SDS011;59403;47.456;19.120;2023-02-03T04:49:09;4.03;;;1.60;;
71566;SDS011;59403;47.456;19.120;2023-02-03T04:51:36;4.85;;;1.80;;
71566;SDS011;59403;47.456;19.120;2023-02-03T04:54:03;5.25;;;1.50;;
71566;SDS011;59403;47.456;19.120;2023-02-03T04:56:29;7.47;;;1.73;;
71566;SDS011;59403;47.456;19.120;2023-02-03T04:58:58;4.43;;;1.65;;
71566;SDS011;59403;47.456;19.120;2023-02-03T05:01:24;5.23;;;2.00;;
71566;SDS011;59403;47.456;19.120;2023-02-03T05:03:51;3.92;;;1.60;;
71566;SDS011;59403;47.456;19.120;2023-02-03T05:06:21;4.53;;;1.40;;
71566;SDS011;59403;47.456;19.120;2023-02-03T05:08:48;3.33;;;1.15;;
71566;SDS011;59403;47.456;19.120;2023-02-03T05:11:15;4.15;;;1.77;;
71566;SDS011;59403;47.456;19.120;2023-02-03T05:13:42;3.87;;;1.40;;
71566;SDS011;59403;47.456;19.120;2023-02-03T05:16:10;2.55;;;1.30;;
71566;SDS011;59403;47.456;19.120;2023-02-03T05:18:37;3.08;;;1.40;;
71566;SDS011;59403;47.456;19.120;2023-02-03T05:21:04;3.25;;;1.08;;
71566;SDS011;59403;47.456;19.120;2023-02-03T05:23:31;3.50;;;1.30;;
71566;SDS011;59403;47.456;19.120;2023-02-03T05:25:58;4.27;;;1.30;;
71566;SDS011;59403;47.456;19.120;2023-02-03T05:28:25;4.62;;;1.33;;
71566;SDS011;59403;47.456;19.120;2023-02-03T05:30:52;3.70;;;1.60;;
71566;SDS011;59403;47.456;19.120;2023-02-03T05:33:20;4.57;;;1.12;;
71566;SDS011;59403;47.456;19.120;2023-02-03T05:35:47;4.78;;;1.20;;
71566;SDS011;59403;47.456;19.120;2023-02-03T05:38:13;4.03;;;1.77;;
71566;SDS011;59403;47.456;19.120;2023-02-03T05:40:40;5.37;;;1.83;;
71566;SDS011;59403;47.456;19.120;2023-02-03T05:43:25;5.47;;;2.20;;
71566;SDS011;59403;47.456;19.120;2023-02-03T05:45:52;7.68;;;2.80;;
71566;SDS011;59403;47.456;19.120;2023-02-03T05:48:21;7.60;;;2.30;;
71566;SDS011;59403;47.456;19.120;2023-02-03T05:50:48;11.03;;;2.83;;
71566;SDS011;59403;47.456;19.120;2023-02-03T05:53:15;6.85;;;3.03;;
71566;SDS011;59403;47.456;19.120;2023-02-03T05:55:41;7.00;;;3.00;;
71566;SDS011;59403;47.456;19.120;2023-02-03T05:58:08;6.53;;;2.75;;
71566;SDS011;59403;47.456;19.120;2023-02-03T06:00:35;5.93;;;2.85;;
71566;SDS011;59403;47.456;19.120;2023-02-03T06:03:02;4.70;;;2.03;;
71566;SDS011;59403;47.456;19.120;2023-02-03T06:05:31;7.60;;;2.75;;
71566;SDS011;59403;47.456;19.120;2023-02-03T06:08:01;6.05;;;1.92;;
71566;SDS011;59403;47.456;19.120;2023-02-03T06:10:28;5.47;;;1.27;;
71566;SDS011;59403;47.456;19.120;2023-02-03T06:12:55;3.25;;;1.35;;
71566;SDS011;59403;47.456;19.120;2023-02-03T06:15:22;3.17;;;1.17;;
71566;SDS011;59403;47.456;19.120;2023-02-03T06:17:49;4.55;;;1.42;;
71566;SDS011;59403;47.456;19.120;2023-02-03T06:20:16;3.47;;;1.20;;
71566;SDS011;59403;47.456;19.120;2023-02-03T06:22:46;3.05;;;1.10;;
71566;SDS011;59403;47.456;19.120;2023-02-03T06:25:12;2.30;;;1.20;;
71566;SDS011;59403;47.456;19.120;2023-02-03T06:27:39;2.90;;;1.40;;
71566;SDS011;59403;47.456;19.120;2023-02-03T06:30:07;3.55;;;1.23;;
71566;SDS011;59403;47.456;19.120;2023-02-03T06:32:35;5.28;;;1.73;;
71566;SDS011;59403;47.456;19.120;2023-02-03T06:35:02;3.15;;;1.37;;
71566;SDS011;59403;47.456;19.120;2023-02-03T06:37:29;4.95;;;1.60;;
71566;SDS011;59403;47.456;19.120;2023-02-03T06:39:57;3.20;;;1.20;;
71566;SDS011;59403;47.456;19.120;2023-02-03T06:42:24;3.80;;;1.15;;
71566;SDS011;59403;47.456;19.120;2023-02-03T06:44:51;3.58;;;1.25;;
71566;SDS011;59403;47.456;19.120;2023-02-03T06:47:19;3.37;;;1.30;;
71566;SDS011;59403;47.456;19.120;2023-02-03T06:49:46;5.78;;;1.45;;
71566;SDS011;59403;47.456;19.120;2023-02-03T06:52:13;3.63;;;1.50;;
71566;SDS011;59403;47.456;19.120;2023-02-03T06:54:40;3.75;;;1.15;;
71566;SDS011;59403;47.456;19.120;2023-02-03T06:57:08;3.75;;;1.45;;
71566;SDS011;59403;47.456;19.120;2023-02-03T06:59:35;3.70;;;1.10;;
71566;SDS011;59403;47.456;19.120;2023-02-03T07:02:02;3.70;;;1.50;;
71566;SDS011;59403;47.456;19.120;2023-02-03T07:04:29;4.93;;;1.97;;
71566;SDS011;59403;47.456;19.120;2023-02-03T07:06:56;7.72;;;2.40;;
71566;SDS011;59403;47.456;19.120;2023-02-03T07:09:23;5.87;;;2.62;;
71566;SDS011;59403;47.456;19.120;2023-02-03T07:11:50;6.15;;;2.40;;
71566;SDS011;59403;47.456;19.120;2023-02-03T07:14:18;9.45;;;2.75;;
71566;SDS011;59403;47.456;19.120;2023-02-03T07:16:45;7.60;;;3.07;;
71566;SDS011;59403;47.456;19.120;2023-02-03T07:19:12;6.68;;;2.67;;
71566;SDS011;59403;47.456;19.120;2023-02-03T07:21:39;8.98;;;3.03;;
71566;SDS011;59403;47.456;19.120;2023-02-03T07:24:06;6.18;;;2.20;;
71566;SDS011;59403;47.456;19.120;2023-02-03T07:26:33;5.85;;;2.20;;
71566;SDS011;59403;47.456;19.120;2023-02-03T07:28:59;6.87;;;2.07;;
71566;SDS011;59403;47.456;19.120;2023-02-03T07:31:28;5.97;;;2.10;;
71566;SDS011;59403;47.456;19.120;2023-02-03T07:33:55;7.05;;;1.45;;
71566;SDS011;59403;47.456;19.120;2023-02-03T07:36:21;5.85;;;1.40;;
71566;SDS011;59403;47.456;19.120;2023-02-03T07:38:50;8.48;;;2.05;;
71566;SDS011;59403;47.456;19.120;2023-02-03T07:41:17;7.30;;;2.67;;
71566;SDS011;59403;47.456;19.120;2023-02-03T07:43:44;8.15;;;2.70;;
71566;SDS011;59403;47.456;19.120;2023-02-03T07:46:10;6.15;;;2.65;;
71566;SDS011;59403;47.456;19.120;2023-02-03T07:48:39;4.12;;;1.90;;
71566;SDS011;59403;47.456;19.120;2023-02-03T07:51:06;4.72;;;1.60;;
71566;SDS011;59403;47.456;19.120;2023-02-03T07:53:32;3.03;;;1.10;;
71566;SDS011;59403;47.456;19.120;2023-02-03T07:55:59;5.05;;;1.20;;
71566;SDS011;59403;47.456;19.120;2023-02-03T07:58:26;3.92;;;1.25;;
71566;SDS011;59403;47.456;19.120;2023-02-03T08:00:54;3.60;;;1.30;;
71566;SDS011;59403;47.456;19.120;2023-02-03T08:03:21;5.95;;;2.10;;
71566;SDS011;59403;47.456;19.120;2023-02-03T08:05:49;5.80;;;1.87;;
71566;SDS011;59403;47.456;19.120;2023-02-03T08:08:16;4.43;;;1.65;;
71566;SDS011;59403;47.456;19.120;2023-02-03T08:10:43;6.28;;;1.83;;
71566;SDS011;59403;47.456;19.120;2023-02-03T08:13:10;8.27;;;2.95;;
71566;SDS011;59403;47.456;19.120;2023-02-03T08:15:37;5.28;;;2.05;;
71566;SDS011;59403;47.456;19.120;2023-02-03T08:18:04;6.47;;;1.97;;
71566;SDS011;59403;47.456;19.120;2023-02-03T08:20:32;3.75;;;1.80;;
71566;SDS011;59403;47.456;19.120;2023-02-03T08:23:00;6.40;;;2.12;;
71566;SDS011;59403;47.456;19.120;2023-02-03T08:25:27;9.80;;;2.17;;
71566;SDS011;59403;47.456;19.120;2023-02-03T08:27:54;6.18;;;2.17;;
71566;SDS011;59403;47.456;19.120;2023-02-03T08:30:21;5.70;;;1.77;;
71566;SDS011;59403;47.456;19.120;2023-02-03T08:32:49;4.32;;;2.50;;
71566;SDS011;59403;47.456;19.120;2023-02-03T08:35:16;5.87;;;2.30;;
71566;SDS011;59403;47.456;19.120;2023-02-03T08:37:43;4.90;;;2.70;;
71566;SDS011;59403;47.456;19.120;2023-02-03T08:40:11;6.07;;;2.42;;
71566;SDS011;59403;47.456;19.120;2023-02-03T08:42:38;6.83;;;2.93;;
71566;SDS011;59403;47.456;19.120;2023-02-03T08:45:05;10.82;;;3.90;;
71566;SDS011;59403;47.456;19.120;2023-02-03T08:47:33;8.50;;;3.90;;
71566;SDS011;59403;47.456;19.120;2023-02-03T08:50:01;9.95;;;2.78;;
71566;SDS011;59403;47.456;19.120;2023-02-03T08:52:28;9.73;;;3.70;;
71566;SDS011;59403;47.456;19.120;2023-02-03T08:54:55;6.53;;;3.17;;
71566;SDS011;59403;47.456;19.120;2023-02-03T08:57:23;8.90;;;4.18;;
71566;SDS011;59403;47.456;19.120;2023-02-03T08:59:50;7.20;;;3.87;;
71566;SDS011;59403;47.456;19.120;2023-02-03T09:02:18;5.90;;;2.80;;
71566;SDS011;59403;47.456;19.120;2023-02-03T09:04:45;6.37;;;2.50;;
71566;SDS011;59403;47.456;19.120;2023-02-03T09:07:13;7.47;;;3.10;;
71566;SDS011;59403;47.456;19.120;2023-02-03T09:09:40;6.22;;;2.90;;
71566;SDS011;59403;47.456;19.120;2023-02-03T09:12:07;8.02;;;3.08;;
71566;SDS011;59403;47.456;19.120;2023-02-03T09:14:37;8.43;;;3.35;;
71566;SDS011;59403;47.456;19.120;2023-02-03T09:17:05;7.45;;;3.87;;
71566;SDS011;59403;47.456;19.120;2023-02-03T09:19:33;9.27;;;4.00;;
71566;SDS011;59403;47.456;19.120;2023-02-03T09:22:00;9.38;;;5.10;;
71566;SDS011;59403;47.456;19.120;2023-02-03T09:24:27;11.55;;;5.20;;
71566;SDS011;59403;47.456;19.120;2023-02-03T09:26:54;13.98;;;6.05;;
71566;SDS011;59403;47.456;19.120;2023-02-03T09:29:22;13.30;;;6.47;;
71566;SDS011;59403;47.456;19.120;2023-02-03T09:31:50;16.50;;;6.90;;
71566;SDS011;59403;47.456;19.120;2023-02-03T09:34:17;17.27;;;8.88;;
71566;SDS011;59403;47.456;19.120;2023-02-03T09:36:45;14.55;;;7.00;;
71566;SDS011;59403;47.456;19.120;2023-02-03T09:39:12;11.88;;;6.87;;
71566;SDS011;59403;47.456;19.120;2023-02-03T09:41:43;14.38;;;6.87;;
71566;SDS011;59403;47.456;19.120;2023-02-03T09:44:23;15.90;;;7.47;;
71566;SDS011;59403;47.456;19.120;2023-02-03T09:46:57;17.50;;;7.43;;
71566;SDS011;59403;47.456;19.120;2023-02-03T09:49:36;16.48;;;7.57;;
71566;SDS011;59403;47.456;19.120;2023-02-03T09:52:07;16.85;;;7.22;;
71566;SDS011;59403;47.456;19.120;2023-02-03T09:54:40;17.85;;;7.53;;
71566;SDS011;59403;47.456;19.120;2023-02-03T09:57:12;15.50;;;6.33;;
71566;SDS011;59403;47.456;19.120;2023-02-03T10:00:08;12.55;;;5.87;;
71566;SDS011;59403;47.456;19.120;2023-02-03T10:03:02;13.45;;;6.28;;
71566;SDS011;59403;47.456;19.120;2023-02-03T10:05:42;17.55;;;7.62;;
71566;SDS011;59403;47.456;19.120;2023-02-03T10:08:34;13.50;;;7.05;;
71566;SDS011;59403;47.456;19.120;2023-02-03T10:11:11;13.87;;;6.67;;
71566;SDS011;59403;47.456;19.120;2023-02-03T10:13:50;13.77;;;7.10;;
71566;SDS011;59403;47.456;19.120;2023-02-03T10:16:47;16.35;;;7.90;;
71566;SDS011;59403;47.456;19.120;2023-02-03T10:19:36;15.65;;;7.90;;
71566;SDS011;59403;47.456;19.120;2023-02-03T10:22:07;18.30;;;8.65;;
71566;SDS011;59403;47.456;19.120;2023-02-03T10:24:41;18.13;;;7.53;;
71566;SDS011;59403;47.456;19.120;2023-02-03T10:27:14;15.63;;;7.97;;
71566;SDS011;59403;47.456;19.120;2023-02-03T10:29:42;14.35;;;8.48;;
71566;SDS011;59403;47.456;19.120;2023-02-03T10:32:09;18.30;;;8.45;;
71566;SDS011;59403;47.456;19.120;2023-02-03T10:34:38;19.80;;;8.93;;
71566;SDS011;59403;47.456;19.120;2023-02-03T10:37:12;17.20;;;8.93;;
71566;SDS011;59403;47.456;19.120;2023-02-03T10:39:49;21.35;;;8.93;;
71566;SDS011;59403;47.456;19.120;2023-02-03T10:42:17;16.67;;;9.10;;
71566;SDS011;59403;47.456;19.120;2023-02-03T10:44:47;20.23;;;10.45;;
71566;SDS011;59403;47.456;19.120;2023-02-03T10:50:04;20.57;;;9.80;;
71566;SDS011;59403;47.456;19.120;2023-02-03T10:52:33;20.20;;;9.82;;
71566;SDS011;59403;47.456;19.120;2023-02-03T10:55:03;17.08;;;8.90;;
71566;SDS011;59403;47.456;19.120;2023-02-03T10:57:33;20.10;;;9.50;;
71566;SDS011;59403;47.456;19.120;2023-02-03T11:00:05;16.42;;;8.75;;
71566;SDS011;59403;47.456;19.120;2023-02-03T11:02:45;17.60;;;10.20;;
71566;SDS011;59403;47.456;19.120;2023-02-03T11:05:22;16.98;;;8.63;;
71566;SDS011;59403;47.456;19.120;2023-02-03T11:07:50;17.80;;;9.55;;
71566;SDS011;59403;47.456;19.120;2023-02-03T11:10:28;18.60;;;9.32;;
71566;SDS011;59403;47.456;19.120;2023-02-03T11:13:09;17.27;;;9.27;;
71566;SDS011;59403;47.456;19.120;2023-02-03T11:15:44;15.73;;;8.97;;
71566;SDS011;59403;47.456;19.120;2023-02-03T11:18:25;18.60;;;8.63;;
71566;SDS011;59403;47.456;19.120;2023-02-03T11:21:02;18.67;;;9.50;;
71566;SDS011;59403;47.456;19.120;2023-02-03T11:23:33;18.58;;;8.77;;
71566;SDS011;59403;47.456;19.120;2023-02-03T11:26:07;24.12;;;11.25;;
71566;SDS011;59403;47.456;19.120;2023-02-03T11:28:40;16.67;;;9.20;;
71566;SDS011;59403;47.456;19.120;2023-02-03T11:31:19;11.90;;;6.12;;
71566;SDS011;59403;47.456;19.120;2023-02-03T11:33:53;11.40;;;6.72;;
71566;SDS011;59403;47.456;19.120;2023-02-03T11:36:30;10.80;;;5.30;;
71566;SDS011;59403;47.456;19.120;2023-02-03T11:39:18;11.18;;;5.12;;
71566;SDS011;59403;47.456;19.120;2023-02-03T11:41:52;10.00;;;5.20;;
71566;SDS011;59403;47.456;19.120;2023-02-03T11:44:20;11.00;;;5.22;;
71566;SDS011;59403;47.456;19.120;2023-02-03T11:46:51;11.25;;;5.55;;
71566;SDS011;59403;47.456;19.120;2023-02-03T11:52:49;9.65;;;4.95;;
71566;SDS011;59403;47.456;19.120;2023-02-03T11:55:29;10.13;;;5.23;;
71566;SDS011;59403;47.456;19.120;2023-02-03T11:58:19;9.48;;;5.30;;
71566;SDS011;59403;47.456;19.120;2023-02-03T12:01:03;10.30;;;5.47;;
71566;SDS011;59403;47.456;19.120;2023-02-03T12:04:05;9.10;;;5.70;;
71566;SDS011;59403;47.456;19.120;2023-02-03T12:06:54;8.65;;;5.10;;
71566;SDS011;59403;47.456;19.120;2023-02-03T12:09:35;9.87;;;5.60;;
71566;SDS011;59403;47.456;19.120;2023-02-03T12:12:17;8.77;;;4.90;;
71566;SDS011;59403;47.456;19.120;2023-02-03T12:14:57;11.82;;;6.05;;
71566;SDS011;59403;47.456;19.120;2023-02-03T12:17:40;10.45;;;5.85;;
71566;SDS011;59403;47.456;19.120;2023-02-03T12:20:23;11.50;;;5.10;;
71566;SDS011;59403;47.456;19.120;2023-02-03T12:23:04;12.30;;;5.90;;
71566;SDS011;59403;47.456;19.120;2023-02-03T12:25:47;11.00;;;5.07;;
71566;SDS011;59403;47.456;19.120;2023-02-03T12:28:29;8.88;;;5.15;;
71566;SDS011;59403;47.456;19.120;2023-02-03T12:31:10;9.93;;;5.05;;
71566;SDS011;59403;47.456;19.120;2023-02-03T12:33:42;11.30;;;6.03;;
71566;SDS011;59403;47.456;19.120;2023-02-03T12:36:17;9.70;;;5.20;;
71566;SDS011;59403;47.456;19.120;2023-02-03T12:38:48;9.15;;;5.15;;
71566;SDS011;59403;47.456;19.120;2023-02-03T12:41:22;9.77;;;5.62;;
71566;SDS011;59403;47.456;19.120;2023-02-03T12:43:52;11.25;;;5.85;;
71566;SDS011;59403;47.456;19.120;2023-02-03T12:46:25;16.60;;;7.78;;
71566;SDS011;59403;47.456;19.120;2023-02-03T12:48:57;15.47;;;7.60;;
71566;SDS011;59403;47.456;19.120;2023-02-03T12:51:29;12.23;;;6.93;;
71566;SDS011;59403;47.456;19.120;2023-02-03T12:54:02;13.98;;;7.35;;
71566;SDS011;59403;47.456;19.120;2023-02-03T12:56:38;11.38;;;6.40;;
71566;SDS011;59403;47.456;19.120;2023-02-03T12:59:10;18.65;;;9.10;;
71566;SDS011;59403;47.456;19.120;2023-02-03T13:01:41;15.63;;;8.20;;
71566;SDS011;59403;47.456;19.120;2023-02-03T13:04:16;17.20;;;8.48;;
71566;SDS011;59403;47.456;19.120;2023-02-03T13:06:52;12.25;;;6.78;;
71566;SDS011;59403;47.456;19.120;2023-02-03T13:09:28;13.38;;;7.40;;
71566;SDS011;59403;47.456;19.120;2023-02-03T13:12:04;14.25;;;7.95;;
71566;SDS011;59403;47.456;19.120;2023-02-03T13:14:35;20.23;;;10.07;;
71566;SDS011;59403;47.456;19.120;2023-02-03T13:17:07;14.55;;;8.25;;
71566;SDS011;59403;47.456;19.120;2023-02-03T13:19:42;19.15;;;11.20;;
71566;SDS011;59403;47.456;19.120;2023-02-03T13:22:14;19.65;;;11.90;;
71566;SDS011;59403;47.456;19.120;2023-02-03T13:24:42;18.62;;;11.43;;
71566;SDS011;59403;47.456;19.120;2023-02-03T13:27:21;23.27;;;12.90;;
71566;SDS011;59403;47.456;19.120;2023-02-03T13:30:08;18.17;;;11.23;;
71566;SDS011;59403;47.456;19.120;2023-02-03T13:32:51;12.70;;;7.57;;
71566;SDS011;59403;47.456;19.120;2023-02-03T13:35:42;11.75;;;6.70;;
71566;SDS011;59403;47.456;19.120;2023-02-03T13:41:34;13.90;;;7.03;;
71566;SDS011;59403;47.456;19.120;2023-02-03T13:44:08;11.20;;;6.40;;
71566;SDS011;59403;47.456;19.120;2023-02-03T13:46:39;11.43;;;7.10;;
71566;SDS011;59403;47.456;19.120;2023-02-03T13:49:06;13.30;;;6.82;;
71566;SDS011;59403;47.456;19.120;2023-02-03T13:51:36;13.55;;;6.35;;
71566;SDS011;59403;47.456;19.120;2023-02-03T13:54:12;11.67;;;6.03;;
71566;SDS011;59403;47.456;19.120;2023-02-03T13:56:47;12.65;;;7.47;;
71566;SDS011;59403;47.456;19.120;2023-02-03T13:59:27;13.35;;;7.53;;
71566;SDS011;59403;47.456;19.120;2023-02-03T14:04:57;15.32;;;7.90;;
71566;SDS011;59403;47.456;19.120;2023-02-03T14:07:27;16.47;;;8.20;;
71566;SDS011;59403;47.456;19.120;2023-02-03T14:12:56;16.10;;;7.10;;
71566;SDS011;59403;47.456;19.120;2023-02-03T14:18:31;15.50;;;7.65;;
71566;SDS011;59403;47.456;19.120;2023-02-03T14:23:47;17.10;;;8.75;;
71566;SDS011;59403;47.456;19.120;2023-02-03T14:29:08;14.32;;;6.95;;
71566;SDS011;59403;47.456;19.120;2023-02-03T14:31:57;16.40;;;7.82;;
71566;SDS011;59403;47.456;19.120;2023-02-03T14:34:35;17.27;;;7.70;;
71566;SDS011;59403;47.456;19.120;2023-02-03T14:37:09;17.42;;;7.53;;
71566;SDS011;59403;47.456;19.120;2023-02-03T14:39:47;16.08;;;8.10;;
71566;SDS011;59403;47.456;19.120;2023-02-03T14:46:01;13.52;;;7.60;;
71566;SDS011;59403;47.456;19.120;2023-02-03T14:48:50;16.77;;;7.67;;
71566;SDS011;59403;47.456;19.120;2023-02-03T14:51:42;16.35;;;7.93;;
71566;SDS011;59403;47.456;19.120;2023-02-03T14:54:25;17.55;;;7.93;;
71566;SDS011;59403;47.456;19.120;2023-02-03T14:57:08;19.92;;;9.10;;
71566;SDS011;59403;47.456;19.120;2023-02-03T14:59:46;15.50;;;8.63;;
71566;SDS011;59403;47.456;19.120;2023-02-03T15:02:16;18.13;;;8.50;;
71566;SDS011;59403;47.456;19.120;2023-02-03T15:04:49;18.87;;;8.52;;
71566;SDS011;59403;47.456;19.120;2023-02-03T15:07:36;18.87;;;8.90;;
71566;SDS011;59403;47.456;19.120;2023-02-03T15:10:12;16.75;;;8.63;;
71566;SDS011;59403;47.456;19.120;2023-02-03T15:12:44;19.48;;;9.38;;
71566;SDS011;59403;47.456;19.120;2023-02-03T15:15:14;20.50;;;10.20;;
71566;SDS011;59403;47.456;19.120;2023-02-03T15:17:46;19.58;;;9.15;;
71566;SDS011;59403;47.456;19.120;2023-02-03T15:20:32;16.75;;;9.20;;
71566;SDS011;59403;47.456;19.120;2023-02-03T15:23:15;18.95;;;9.07;;
71566;SDS011;59403;47.456;19.120;2023-02-03T15:25:44;17.70;;;9.10;;
71566;SDS011;59403;47.456;19.120;2023-02-03T15:28:13;20.10;;;9.43;;